sensor_id;sensor_type;location;lat;lon;timestamp;P1;durP1;ratioP1;P2;durP2;ratioP2
78027;SDS011;67235;45.638;11.714;2023-06-04T00:02:23;19.50;;;12.18;;
78027;SDS011;67235;45.638;11.714;2023-06-04T00:04:49;18.85;;;12.48;;
78027;SDS011;67235;45.638;11.714;2023-06-04T00:07:16;18.63;;;12.23;;
78027;SDS011;67235;45.638;11.714;2023-06-04T00:09:42;20.55;;;13.15;;
78027;SDS011;67235;45.638;11.714;2023-06-04T00:12:09;19.52;;;12.48;;
78027;SDS011;67235;45.638;11.714;2023-06-04T00:14:35;19.33;;;12.90;;
78027;SDS011;67235;45.638;11.714;2023-06-04T00:17:00;19.07;;;12.90;;
78027;SDS011;67235;45.638;11.714;2023-06-04T00:19:26;18.85;;;11.68;;
78027;SDS011;67235;45.638;11.714;2023-06-04T00:21:52;20.15;;;11.80;;
78027;SDS011;67235;45.638;11.714;2023-06-04T00:24:18;21.30;;;12.47;;
78027;SDS011;67235;45.638;11.714;2023-06-04T00:26:44;18.60;;;12.30;;
78027;SDS011;67235;45.638;11.714;2023-06-04T00:29:10;20.27;;;12.40;;
78027;SDS011;67235;45.638;11.714;2023-06-04T00:31:36;17.93;;;11.53;;
78027;SDS011;67235;45.638;11.714;2023-06-04T00:34:05;18.98;;;11.55;;
78027;SDS011;67235;45.638;11.714;2023-06-04T00:36:31;15.40;;;9.90;;
78027;SDS011;67235;45.638;11.714;2023-06-04T00:38:57;15.70;;;9.35;;
78027;SDS011;67235;45.638;11.714;2023-06-04T00:41:23;11.23;;;7.53;;
78027;SDS011;67235;45.638;11.714;2023-06-04T00:43:48;12.60;;;6.80;;
78027;SDS011;67235;45.638;11.714;2023-06-04T00:46:21;9.40;;;6.15;;
78027;SDS011;67235;45.638;11.714;2023-06-04T00:48:51;10.23;;;6.00;;
78027;SDS011;67235;45.638;11.714;2023-06-04T00:51:18;9.20;;;5.38;;
78027;SDS011;67235;45.638;11.714;2023-06-04T00:53:46;12.10;;;5.65;;
78027;SDS011;67235;45.638;11.714;2023-06-04T00:56:13;9.45;;;5.50;;
78027;SDS011;67235;45.638;11.714;2023-06-04T00:58:39;12.77;;;5.68;;
78027;SDS011;67235;45.638;11.714;2023-06-04T01:03:58;9.27;;;5.47;;
78027;SDS011;67235;45.638;11.714;2023-06-04T01:06:28;11.20;;;6.88;;
78027;SDS011;67235;45.638;11.714;2023-06-04T01:08:58;12.85;;;7.13;;
78027;SDS011;67235;45.638;11.714;2023-06-04T01:11:34;12.32;;;7.90;;
78027;SDS011;67235;45.638;11.714;2023-06-04T01:14:02;10.70;;;7.23;;
78027;SDS011;67235;45.638;11.714;2023-06-04T01:16:35;12.38;;;7.75;;
78027;SDS011;67235;45.638;11.714;2023-06-04T01:19:37;12.55;;;8.18;;
78027;SDS011;67235;45.638;11.714;2023-06-04T01:22:56;12.07;;;7.10;;
78027;SDS011;67235;45.638;11.714;2023-06-04T01:25:20;11.68;;;7.72;;
78027;SDS011;67235;45.638;11.714;2023-06-04T01:27:51;12.53;;;8.17;;
78027;SDS011;67235;45.638;11.714;2023-06-04T01:30:24;14.45;;;8.40;;
78027;SDS011;67235;45.638;11.714;2023-06-04T01:32:56;14.32;;;8.60;;
78027;SDS011;67235;45.638;11.714;2023-06-04T01:35:22;13.75;;;8.05;;
78027;SDS011;67235;45.638;11.714;2023-06-04T01:37:49;14.15;;;8.25;;
78027;SDS011;67235;45.638;11.714;2023-06-04T01:40:16;12.30;;;7.40;;
78027;SDS011;67235;45.638;11.714;2023-06-04T01:42:42;12.02;;;6.53;;
78027;SDS011;67235;45.638;11.714;2023-06-04T01:45:08;10.90;;;6.68;;
78027;SDS011;67235;45.638;11.714;2023-06-04T01:47:35;13.70;;;6.85;;
78027;SDS011;67235;45.638;11.714;2023-06-04T01:50:01;13.00;;;7.43;;
78027;SDS011;67235;45.638;11.714;2023-06-04T01:52:34;16.00;;;8.43;;
78027;SDS011;67235;45.638;11.714;2023-06-04T01:55:04;16.95;;;8.77;;
78027;SDS011;67235;45.638;11.714;2023-06-04T01:57:37;16.60;;;9.30;;
78027;SDS011;67235;45.638;11.714;2023-06-04T02:00:06;15.48;;;9.70;;
78027;SDS011;67235;45.638;11.714;2023-06-04T02:02:34;16.23;;;10.00;;
78027;SDS011;67235;45.638;11.714;2023-06-04T02:05:03;17.73;;;10.93;;
78027;SDS011;67235;45.638;11.714;2023-06-04T02:07:35;17.95;;;11.43;;
78027;SDS011;67235;45.638;11.714;2023-06-04T02:10:09;19.90;;;10.95;;
78027;SDS011;67235;45.638;11.714;2023-06-04T02:12:39;16.05;;;10.35;;
78027;SDS011;67235;45.638;11.714;2023-06-04T02:15:07;16.57;;;10.00;;
78027;SDS011;67235;45.638;11.714;2023-06-04T02:17:35;17.13;;;10.00;;
78027;SDS011;67235;45.638;11.714;2023-06-04T02:20:05;15.68;;;9.75;;
78027;SDS011;67235;45.638;11.714;2023-06-04T02:22:34;15.32;;;9.43;;
78027;SDS011;67235;45.638;11.714;2023-06-04T02:25:00;13.95;;;8.65;;
78027;SDS011;67235;45.638;11.714;2023-06-04T02:27:26;13.70;;;7.77;;
78027;SDS011;67235;45.638;11.714;2023-06-04T02:29:53;13.38;;;7.90;;
78027;SDS011;67235;45.638;11.714;2023-06-04T02:32:18;13.68;;;7.93;;
78027;SDS011;67235;45.638;11.714;2023-06-04T02:34:44;15.77;;;7.73;;
78027;SDS011;67235;45.638;11.714;2023-06-04T02:37:10;12.35;;;7.70;;
78027;SDS011;67235;45.638;11.714;2023-06-04T02:39:36;13.35;;;7.47;;
78027;SDS011;67235;45.638;11.714;2023-06-04T02:42:02;12.80;;;8.10;;
78027;SDS011;67235;45.638;11.714;2023-06-04T02:44:28;15.02;;;7.88;;
78027;SDS011;67235;45.638;11.714;2023-06-04T02:46:55;14.60;;;8.20;;
78027;SDS011;67235;45.638;11.714;2023-06-04T02:49:22;14.57;;;7.75;;
78027;SDS011;67235;45.638;11.714;2023-06-04T02:51:47;13.03;;;7.47;;
78027;SDS011;67235;45.638;11.714;2023-06-04T02:54:13;13.05;;;7.93;;
78027;SDS011;67235;45.638;11.714;2023-06-04T02:56:40;14.10;;;8.20;;
78027;SDS011;67235;45.638;11.714;2023-06-04T02:59:06;16.23;;;7.83;;
78027;SDS011;67235;45.638;11.714;2023-06-04T03:01:34;14.32;;;8.05;;
78027;SDS011;67235;45.638;11.714;2023-06-04T03:04:00;13.38;;;7.20;;
78027;SDS011;67235;45.638;11.714;2023-06-04T03:06:29;14.65;;;7.93;;
78027;SDS011;67235;45.638;11.714;2023-06-04T03:08:57;14.60;;;8.05;;
78027;SDS011;67235;45.638;11.714;2023-06-04T03:11:23;15.27;;;8.48;;
78027;SDS011;67235;45.638;11.714;2023-06-04T03:13:50;15.65;;;8.23;;
78027;SDS011;67235;45.638;11.714;2023-06-04T03:16:18;15.77;;;8.55;;
78027;SDS011;67235;45.638;11.714;2023-06-04T03:18:44;14.30;;;8.10;;
78027;SDS011;67235;45.638;11.714;2023-06-04T03:21:10;15.60;;;8.43;;
78027;SDS011;67235;45.638;11.714;2023-06-04T03:23:36;16.23;;;9.18;;
78027;SDS011;67235;45.638;11.714;2023-06-04T03:26:03;15.77;;;9.15;;
78027;SDS011;67235;45.638;11.714;2023-06-04T03:28:30;17.58;;;9.75;;
78027;SDS011;67235;45.638;11.714;2023-06-04T03:30:57;14.23;;;8.40;;
78027;SDS011;67235;45.638;11.714;2023-06-04T03:33:23;13.90;;;9.20;;
78027;SDS011;67235;45.638;11.714;2023-06-04T03:35:50;13.68;;;8.70;;
78027;SDS011;67235;45.638;11.714;2023-06-04T03:38:17;15.23;;;8.93;;
78027;SDS011;67235;45.638;11.714;2023-06-04T03:40:46;14.15;;;8.20;;
78027;SDS011;67235;45.638;11.714;2023-06-04T03:43:12;14.73;;;8.83;;
78027;SDS011;67235;45.638;11.714;2023-06-04T03:45:38;15.07;;;9.07;;
78027;SDS011;67235;45.638;11.714;2023-06-04T03:48:03;14.82;;;8.82;;
78027;SDS011;67235;45.638;11.714;2023-06-04T03:50:29;16.33;;;8.43;;
78027;SDS011;67235;45.638;11.714;2023-06-04T03:52:56;14.63;;;8.63;;
78027;SDS011;67235;45.638;11.714;2023-06-04T03:55:22;13.48;;;8.23;;
78027;SDS011;67235;45.638;11.714;2023-06-04T03:57:47;13.57;;;9.07;;
78027;SDS011;67235;45.638;11.714;2023-06-04T04:00:13;14.57;;;9.20;;
78027;SDS011;67235;45.638;11.714;2023-06-04T04:02:40;14.52;;;8.82;;
78027;SDS011;67235;45.638;11.714;2023-06-04T04:05:07;14.52;;;8.68;;
78027;SDS011;67235;45.638;11.714;2023-06-04T04:07:34;14.07;;;8.48;;
78027;SDS011;67235;45.638;11.714;2023-06-04T04:10:00;12.07;;;7.83;;
78027;SDS011;67235;45.638;11.714;2023-06-04T04:12:26;13.27;;;7.82;;
78027;SDS011;67235;45.638;11.714;2023-06-04T04:14:52;13.10;;;8.35;;
78027;SDS011;67235;45.638;11.714;2023-06-04T04:17:18;13.93;;;8.07;;
78027;SDS011;67235;45.638;11.714;2023-06-04T04:19:44;13.00;;;7.90;;
78027;SDS011;67235;45.638;11.714;2023-06-04T04:22:10;14.93;;;8.60;;
78027;SDS011;67235;45.638;11.714;2023-06-04T04:24:36;15.90;;;9.32;;
78027;SDS011;67235;45.638;11.714;2023-06-04T04:27:02;14.88;;;9.20;;
78027;SDS011;67235;45.638;11.714;2023-06-04T04:29:29;11.98;;;8.00;;
78027;SDS011;67235;45.638;11.714;2023-06-04T04:31:59;12.95;;;8.23;;
78027;SDS011;67235;45.638;11.714;2023-06-04T04:34:26;12.57;;;8.15;;
78027;SDS011;67235;45.638;11.714;2023-06-04T04:36:52;12.60;;;7.75;;
78027;SDS011;67235;45.638;11.714;2023-06-04T04:39:21;13.85;;;7.80;;
78027;SDS011;67235;45.638;11.714;2023-06-04T04:41:48;13.95;;;8.10;;
78027;SDS011;67235;45.638;11.714;2023-06-04T04:44:14;11.95;;;6.88;;
78027;SDS011;67235;45.638;11.714;2023-06-04T04:46:40;11.40;;;6.25;;
78027;SDS011;67235;45.638;11.714;2023-06-04T04:49:06;10.03;;;5.80;;
78027;SDS011;67235;45.638;11.714;2023-06-04T04:51:32;9.13;;;5.60;;
78027;SDS011;67235;45.638;11.714;2023-06-04T04:53:58;8.98;;;5.00;;
78027;SDS011;67235;45.638;11.714;2023-06-04T04:56:27;8.82;;;5.07;;
78027;SDS011;67235;45.638;11.714;2023-06-04T04:58:54;10.00;;;5.80;;
78027;SDS011;67235;45.638;11.714;2023-06-04T05:01:20;10.82;;;6.10;;
78027;SDS011;67235;45.638;11.714;2023-06-04T05:03:46;8.55;;;5.40;;
78027;SDS011;67235;45.638;11.714;2023-06-04T05:06:13;8.30;;;4.80;;
78027;SDS011;67235;45.638;11.714;2023-06-04T05:08:39;8.53;;;5.00;;
78027;SDS011;67235;45.638;11.714;2023-06-04T05:11:06;8.13;;;4.60;;
78027;SDS011;67235;45.638;11.714;2023-06-04T05:13:32;9.55;;;4.65;;
78027;SDS011;67235;45.638;11.714;2023-06-04T05:15:58;8.65;;;5.30;;
78027;SDS011;67235;45.638;11.714;2023-06-04T05:18:24;10.87;;;5.33;;
78027;SDS011;67235;45.638;11.714;2023-06-04T05:20:57;8.10;;;4.68;;
78027;SDS011;67235;45.638;11.714;2023-06-04T05:23:25;9.13;;;4.78;;
78027;SDS011;67235;45.638;11.714;2023-06-04T05:25:52;7.45;;;4.60;;
78027;SDS011;67235;45.638;11.714;2023-06-04T05:28:18;8.45;;;5.13;;
78027;SDS011;67235;45.638;11.714;2023-06-04T05:30:44;7.57;;;4.73;;
78027;SDS011;67235;45.638;11.714;2023-06-04T05:33:09;7.90;;;4.85;;
78027;SDS011;67235;45.638;11.714;2023-06-04T05:35:43;7.95;;;4.28;;
78027;SDS011;67235;45.638;11.714;2023-06-04T05:38:11;7.30;;;3.92;;
78027;SDS011;67235;45.638;11.714;2023-06-04T05:40:43;7.00;;;3.77;;
78027;SDS011;67235;45.638;11.714;2023-06-04T05:43:11;8.30;;;4.50;;
78027;SDS011;67235;45.638;11.714;2023-06-04T05:45:37;9.27;;;4.72;;
78027;SDS011;67235;45.638;11.714;2023-06-04T05:48:05;7.85;;;4.50;;
78027;SDS011;67235;45.638;11.714;2023-06-04T05:50:36;7.13;;;4.13;;
78027;SDS011;67235;45.638;11.714;2023-06-04T05:53:06;8.17;;;4.87;;
78027;SDS011;67235;45.638;11.714;2023-06-04T05:55:31;8.48;;;4.68;;
78027;SDS011;67235;45.638;11.714;2023-06-04T05:57:57;7.82;;;4.70;;
78027;SDS011;67235;45.638;11.714;2023-06-04T06:00:26;8.73;;;5.18;;
78027;SDS011;67235;45.638;11.714;2023-06-04T06:02:52;8.95;;;5.03;;
78027;SDS011;67235;45.638;11.714;2023-06-04T06:05:19;8.18;;;4.75;;
78027;SDS011;67235;45.638;11.714;2023-06-04T06:07:46;8.85;;;4.68;;
78027;SDS011;67235;45.638;11.714;2023-06-04T06:10:15;9.00;;;5.30;;
78027;SDS011;67235;45.638;11.714;2023-06-04T06:12:46;9.73;;;5.10;;
78027;SDS011;67235;45.638;11.714;2023-06-04T06:15:18;9.25;;;5.35;;
78027;SDS011;67235;45.638;11.714;2023-06-04T06:17:44;8.20;;;4.82;;
78027;SDS011;67235;45.638;11.714;2023-06-04T06:20:10;8.55;;;4.93;;
78027;SDS011;67235;45.638;11.714;2023-06-04T06:22:37;8.02;;;5.40;;
78027;SDS011;67235;45.638;11.714;2023-06-04T06:25:03;9.07;;;5.33;;
78027;SDS011;67235;45.638;11.714;2023-06-04T06:27:30;9.00;;;5.65;;
78027;SDS011;67235;45.638;11.714;2023-06-04T06:29:56;8.07;;;4.82;;
78027;SDS011;67235;45.638;11.714;2023-06-04T06:32:30;10.07;;;5.37;;
78027;SDS011;67235;45.638;11.714;2023-06-04T06:34:55;8.15;;;5.32;;
78027;SDS011;67235;45.638;11.714;2023-06-04T06:37:21;9.65;;;5.43;;
78027;SDS011;67235;45.638;11.714;2023-06-04T06:39:47;8.30;;;5.30;;
78027;SDS011;67235;45.638;11.714;2023-06-04T06:42:13;8.15;;;5.32;;
78027;SDS011;67235;45.638;11.714;2023-06-04T06:44:39;8.70;;;4.93;;
78027;SDS011;67235;45.638;11.714;2023-06-04T06:47:05;8.40;;;5.17;;
78027;SDS011;67235;45.638;11.714;2023-06-04T06:49:31;9.55;;;4.90;;
78027;SDS011;67235;45.638;11.714;2023-06-04T06:51:56;8.68;;;5.00;;
78027;SDS011;67235;45.638;11.714;2023-06-04T06:54:22;8.20;;;5.07;;
78027;SDS011;67235;45.638;11.714;2023-06-04T06:56:48;7.93;;;4.82;;
78027;SDS011;67235;45.638;11.714;2023-06-04T06:59:15;8.20;;;5.15;;
78027;SDS011;67235;45.638;11.714;2023-06-04T07:01:41;8.80;;;4.50;;
78027;SDS011;67235;45.638;11.714;2023-06-04T07:04:10;8.10;;;4.85;;
78027;SDS011;67235;45.638;11.714;2023-06-04T07:06:36;8.88;;;4.93;;
78027;SDS011;67235;45.638;11.714;2023-06-04T07:09:02;8.70;;;4.90;;
78027;SDS011;67235;45.638;11.714;2023-06-04T07:11:30;11.50;;;4.97;;
78027;SDS011;67235;45.638;11.714;2023-06-04T07:13:59;8.15;;;5.07;;
78027;SDS011;67235;45.638;11.714;2023-06-04T07:16:28;8.73;;;4.90;;
78027;SDS011;67235;45.638;11.714;2023-06-04T07:18:54;7.53;;;4.63;;
78027;SDS011;67235;45.638;11.714;2023-06-04T07:21:28;11.85;;;5.10;;
78027;SDS011;67235;45.638;11.714;2023-06-04T07:23:54;8.73;;;5.30;;
78027;SDS011;67235;45.638;11.714;2023-06-04T07:26:22;9.05;;;5.00;;
78027;SDS011;67235;45.638;11.714;2023-06-04T07:28:50;7.63;;;4.70;;
78027;SDS011;67235;45.638;11.714;2023-06-04T07:31:16;8.70;;;4.80;;
78027;SDS011;67235;45.638;11.714;2023-06-04T07:33:42;8.48;;;5.20;;
78027;SDS011;67235;45.638;11.714;2023-06-04T07:36:15;8.55;;;5.43;;
78027;SDS011;67235;45.638;11.714;2023-06-04T07:38:41;8.30;;;5.07;;
78027;SDS011;67235;45.638;11.714;2023-06-04T07:41:08;9.60;;;5.33;;
78027;SDS011;67235;45.638;11.714;2023-06-04T07:43:34;8.90;;;4.70;;
78027;SDS011;67235;45.638;11.714;2023-06-04T07:46:01;8.40;;;5.20;;
78027;SDS011;67235;45.638;11.714;2023-06-04T07:48:27;8.65;;;5.15;;
78027;SDS011;67235;45.638;11.714;2023-06-04T07:51:02;8.68;;;5.43;;
78027;SDS011;67235;45.638;11.714;2023-06-04T07:53:29;8.60;;;5.70;;
78027;SDS011;67235;45.638;11.714;2023-06-04T07:55:56;9.32;;;4.80;;
78027;SDS011;67235;45.638;11.714;2023-06-04T07:58:22;7.07;;;4.47;;
78027;SDS011;67235;45.638;11.714;2023-06-04T08:00:48;8.43;;;4.70;;
78027;SDS011;67235;45.638;11.714;2023-06-04T08:03:14;8.93;;;4.60;;
78027;SDS011;67235;45.638;11.714;2023-06-04T08:05:40;8.85;;;5.10;;
78027;SDS011;67235;45.638;11.714;2023-06-04T08:08:06;7.93;;;5.03;;
78027;SDS011;67235;45.638;11.714;2023-06-04T08:10:32;7.20;;;4.05;;
78027;SDS011;67235;45.638;11.714;2023-06-04T08:12:58;7.05;;;4.47;;
78027;SDS011;67235;45.638;11.714;2023-06-04T08:15:24;9.90;;;5.50;;
78027;SDS011;67235;45.638;11.714;2023-06-04T08:17:50;8.55;;;4.80;;
78027;SDS011;67235;45.638;11.714;2023-06-04T08:20:16;7.47;;;5.00;;
78027;SDS011;67235;45.638;11.714;2023-06-04T08:22:43;8.43;;;5.40;;
78027;SDS011;67235;45.638;11.714;2023-06-04T08:25:09;8.85;;;5.13;;
78027;SDS011;67235;45.638;11.714;2023-06-04T08:27:37;10.23;;;4.97;;
78027;SDS011;67235;45.638;11.714;2023-06-04T08:30:06;7.82;;;4.68;;
78027;SDS011;67235;45.638;11.714;2023-06-04T08:32:32;7.97;;;5.23;;
78027;SDS011;67235;45.638;11.714;2023-06-04T08:34:58;8.30;;;4.65;;
78027;SDS011;67235;45.638;11.714;2023-06-04T08:37:24;8.55;;;5.10;;
78027;SDS011;67235;45.638;11.714;2023-06-04T08:39:50;10.27;;;5.20;;
78027;SDS011;67235;45.638;11.714;2023-06-04T08:42:22;11.18;;;5.15;;
78027;SDS011;67235;45.638;11.714;2023-06-04T08:44:56;8.75;;;4.82;;
78027;SDS011;67235;45.638;11.714;2023-06-04T08:47:23;11.25;;;5.45;;
78027;SDS011;67235;45.638;11.714;2023-06-04T08:49:54;7.97;;;4.95;;
78027;SDS011;67235;45.638;11.714;2023-06-04T08:52:25;10.77;;;5.03;;
78027;SDS011;67235;45.638;11.714;2023-06-04T08:54:51;8.48;;;5.10;;
78027;SDS011;67235;45.638;11.714;2023-06-04T08:57:19;9.15;;;5.00;;
78027;SDS011;67235;45.638;11.714;2023-06-04T08:59:45;7.43;;;4.72;;
78027;SDS011;67235;45.638;11.714;2023-06-04T09:02:12;8.60;;;5.18;;
78027;SDS011;67235;45.638;11.714;2023-06-04T09:04:39;9.70;;;5.00;;
78027;SDS011;67235;45.638;11.714;2023-06-04T09:07:05;9.02;;;5.32;;
78027;SDS011;67235;45.638;11.714;2023-06-04T09:09:35;8.75;;;5.20;;
78027;SDS011;67235;45.638;11.714;2023-06-04T09:12:03;8.25;;;5.15;;
78027;SDS011;67235;45.638;11.714;2023-06-04T09:14:34;8.55;;;5.45;;
78027;SDS011;67235;45.638;11.714;2023-06-04T09:17:00;8.67;;;5.57;;
78027;SDS011;67235;45.638;11.714;2023-06-04T09:19:26;8.13;;;5.07;;
78027;SDS011;67235;45.638;11.714;2023-06-04T09:21:53;8.15;;;5.00;;
78027;SDS011;67235;45.638;11.714;2023-06-04T09:24:25;8.88;;;5.35;;
78027;SDS011;67235;45.638;11.714;2023-06-04T09:27:15;7.90;;;5.37;;
78027;SDS011;67235;45.638;11.714;2023-06-04T09:29:52;9.05;;;5.68;;
78027;SDS011;67235;45.638;11.714;2023-06-04T09:34:52;10.90;;;5.55;;
78027;SDS011;67235;45.638;11.714;2023-06-04T09:37:18;7.25;;;4.88;;
78027;SDS011;67235;45.638;11.714;2023-06-04T09:39:55;8.47;;;5.17;;
78027;SDS011;67235;45.638;11.714;2023-06-04T09:42:22;8.68;;;5.03;;
78027;SDS011;67235;45.638;11.714;2023-06-04T09:44:48;8.52;;;5.10;;
78027;SDS011;67235;45.638;11.714;2023-06-04T09:47:14;8.27;;;4.97;;
78027;SDS011;67235;45.638;11.714;2023-06-04T09:49:44;10.20;;;5.20;;
78027;SDS011;67235;45.638;11.714;2023-06-04T09:52:10;10.43;;;5.37;;
78027;SDS011;67235;45.638;11.714;2023-06-04T09:54:38;9.02;;;5.40;;
78027;SDS011;67235;45.638;11.714;2023-06-04T09:57:16;8.25;;;5.20;;
78027;SDS011;67235;45.638;11.714;2023-06-04T09:59:43;9.70;;;5.30;;
78027;SDS011;67235;45.638;11.714;2023-06-04T10:02:13;10.10;;;5.30;;
78027;SDS011;67235;45.638;11.714;2023-06-04T10:04:43;8.50;;;4.90;;
78027;SDS011;67235;45.638;11.714;2023-06-04T10:07:13;10.20;;;5.55;;
78027;SDS011;67235;45.638;11.714;2023-06-04T10:09:41;9.15;;;5.68;;
78027;SDS011;67235;45.638;11.714;2023-06-04T10:12:11;7.97;;;5.15;;
78027;SDS011;67235;45.638;11.714;2023-06-04T10:14:52;10.48;;;5.65;;
78027;SDS011;67235;45.638;11.714;2023-06-04T10:17:22;9.03;;;5.60;;
78027;SDS011;67235;45.638;11.714;2023-06-04T10:19:50;8.95;;;5.70;;
78027;SDS011;67235;45.638;11.714;2023-06-04T10:22:19;8.88;;;5.60;;
78027;SDS011;67235;45.638;11.714;2023-06-04T10:24:48;8.98;;;5.55;;
78027;SDS011;67235;45.638;11.714;2023-06-04T10:27:15;8.25;;;5.07;;
78027;SDS011;67235;45.638;11.714;2023-06-04T10:29:42;8.03;;;5.10;;
78027;SDS011;67235;45.638;11.714;2023-06-04T10:32:09;9.32;;;5.72;;
78027;SDS011;67235;45.638;11.714;2023-06-04T10:34:36;9.85;;;5.75;;
78027;SDS011;67235;45.638;11.714;2023-06-04T10:37:02;9.02;;;5.43;;
78027;SDS011;67235;45.638;11.714;2023-06-04T10:39:29;9.40;;;5.75;;
78027;SDS011;67235;45.638;11.714;2023-06-04T10:42:03;9.70;;;5.90;;
78027;SDS011;67235;45.638;11.714;2023-06-04T10:44:31;9.48;;;5.38;;
78027;SDS011;67235;45.638;11.714;2023-06-04T10:46:58;8.90;;;5.50;;
78027;SDS011;67235;45.638;11.714;2023-06-04T10:49:30;8.40;;;5.60;;
78027;SDS011;67235;45.638;11.714;2023-06-04T10:51:56;8.40;;;5.30;;
78027;SDS011;67235;45.638;11.714;2023-06-04T10:54:28;8.80;;;5.30;;
78027;SDS011;67235;45.638;11.714;2023-06-04T10:56:54;9.38;;;5.80;;
78027;SDS011;67235;45.638;11.714;2023-06-04T10:59:20;9.13;;;5.40;;
78027;SDS011;67235;45.638;11.714;2023-06-04T11:01:49;10.00;;;5.90;;
78027;SDS011;67235;45.638;11.714;2023-06-04T11:04:21;8.07;;;5.35;;
78027;SDS011;67235;45.638;11.714;2023-06-04T11:06:59;9.27;;;5.20;;
78027;SDS011;67235;45.638;11.714;2023-06-04T11:09:27;10.25;;;5.50;;
78027;SDS011;67235;45.638;11.714;2023-06-04T11:11:59;9.00;;;5.30;;
78027;SDS011;67235;45.638;11.714;2023-06-04T11:14:25;9.25;;;5.90;;
78027;SDS011;67235;45.638;11.714;2023-06-04T11:16:51;8.53;;;5.47;;
78027;SDS011;67235;45.638;11.714;2023-06-04T11:19:17;8.50;;;5.65;;
78027;SDS011;67235;45.638;11.714;2023-06-04T11:21:44;8.57;;;5.53;;
78027;SDS011;67235;45.638;11.714;2023-06-04T11:24:11;8.32;;;5.57;;
78027;SDS011;67235;45.638;11.714;2023-06-04T11:26:38;8.47;;;5.70;;
78027;SDS011;67235;45.638;11.714;2023-06-04T11:29:08;9.75;;;5.80;;
78027;SDS011;67235;45.638;11.714;2023-06-04T11:31:46;9.70;;;5.90;;
78027;SDS011;67235;45.638;11.714;2023-06-04T11:34:28;8.75;;;5.78;;
78027;SDS011;67235;45.638;11.714;2023-06-04T11:36:55;8.60;;;5.70;;
78027;SDS011;67235;45.638;11.714;2023-06-04T11:39:21;7.40;;;5.03;;
78027;SDS011;67235;45.638;11.714;2023-06-04T11:41:50;9.45;;;5.53;;
78027;SDS011;67235;45.638;11.714;2023-06-04T11:44:18;8.88;;;4.95;;
78027;SDS011;67235;45.638;11.714;2023-06-04T11:46:45;8.65;;;5.13;;
78027;SDS011;67235;45.638;11.714;2023-06-04T11:49:17;9.57;;;5.22;;
78027;SDS011;67235;45.638;11.714;2023-06-04T11:51:50;9.60;;;5.17;;
78027;SDS011;67235;45.638;11.714;2023-06-04T11:54:18;9.05;;;5.35;;
78027;SDS011;67235;45.638;11.714;2023-06-04T11:56:48;9.23;;;5.30;;
78027;SDS011;67235;45.638;11.714;2023-06-04T11:59:16;8.60;;;5.25;;
78027;SDS011;67235;45.638;11.714;2023-06-04T12:01:43;7.30;;;4.85;;
78027;SDS011;67235;45.638;11.714;2023-06-04T12:04:13;9.33;;;5.23;;
78027;SDS011;67235;45.638;11.714;2023-06-04T12:06:52;10.10;;;5.15;;
78027;SDS011;67235;45.638;11.714;2023-06-04T12:09:20;8.48;;;5.30;;
78027;SDS011;67235;45.638;11.714;2023-06-04T12:11:47;9.02;;;5.43;;
78027;SDS011;67235;45.638;11.714;2023-06-04T12:14:16;9.32;;;4.72;;
78027;SDS011;67235;45.638;11.714;2023-06-04T12:16:55;10.13;;;5.53;;
78027;SDS011;67235;45.638;11.714;2023-06-04T12:19:21;8.63;;;5.22;;
78027;SDS011;67235;45.638;11.714;2023-06-04T12:21:58;11.35;;;5.40;;
78027;SDS011;67235;45.638;11.714;2023-06-04T12:24:26;8.85;;;4.97;;
78027;SDS011;67235;45.638;11.714;2023-06-04T12:27:00;8.13;;;5.30;;
78027;SDS011;67235;45.638;11.714;2023-06-04T12:29:31;8.97;;;5.50;;
78027;SDS011;67235;45.638;11.714;2023-06-04T12:32:01;8.30;;;5.43;;
78027;SDS011;67235;45.638;11.714;2023-06-04T12:34:40;9.82;;;5.43;;
78027;SDS011;67235;45.638;11.714;2023-06-04T12:37:06;8.82;;;5.25;;
78027;SDS011;67235;45.638;11.714;2023-06-04T12:39:33;9.00;;;5.20;;
78027;SDS011;67235;45.638;11.714;2023-06-04T12:42:01;8.60;;;5.50;;
78027;SDS011;67235;45.638;11.714;2023-06-04T12:44:30;10.70;;;5.43;;
78027;SDS011;67235;45.638;11.714;2023-06-04T12:46:56;9.38;;;5.53;;
78027;SDS011;67235;45.638;11.714;2023-06-04T12:49:22;8.90;;;4.97;;
78027;SDS011;67235;45.638;11.714;2023-06-04T12:51:48;9.70;;;5.18;;
78027;SDS011;67235;45.638;11.714;2023-06-04T12:54:14;7.88;;;5.05;;
78027;SDS011;67235;45.638;11.714;2023-06-04T12:56:40;10.73;;;6.03;;
78027;SDS011;67235;45.638;11.714;2023-06-04T12:59:06;8.02;;;5.15;;
78027;SDS011;67235;45.638;11.714;2023-06-04T13:01:32;8.35;;;5.82;;
78027;SDS011;67235;45.638;11.714;2023-06-04T13:03:58;8.48;;;5.72;;
78027;SDS011;67235;45.638;11.714;2023-06-04T13:06:24;9.93;;;6.05;;
78027;SDS011;67235;45.638;11.714;2023-06-04T13:08:51;9.10;;;5.70;;
78027;SDS011;67235;45.638;11.714;2023-06-04T13:11:17;9.77;;;5.55;;
78027;SDS011;67235;45.638;11.714;2023-06-04T13:13:43;7.90;;;5.28;;
78027;SDS011;67235;45.638;11.714;2023-06-04T13:16:09;8.88;;;5.70;;
78027;SDS011;67235;45.638;11.714;2023-06-04T13:18:35;8.77;;;5.77;;
78027;SDS011;67235;45.638;11.714;2023-06-04T13:21:01;8.63;;;5.47;;
78027;SDS011;67235;45.638;11.714;2023-06-04T13:23:27;9.32;;;5.82;;
78027;SDS011;67235;45.638;11.714;2023-06-04T13:25:53;11.18;;;5.97;;
78027;SDS011;67235;45.638;11.714;2023-06-04T13:28:18;8.97;;;6.00;;
78027;SDS011;67235;45.638;11.714;2023-06-04T13:30:45;8.90;;;6.15;;
78027;SDS011;67235;45.638;11.714;2023-06-04T13:33:11;9.55;;;6.22;;
78027;SDS011;67235;45.638;11.714;2023-06-04T13:35:37;9.68;;;6.60;;
78027;SDS011;67235;45.638;11.714;2023-06-04T13:38:04;11.00;;;6.83;;
78027;SDS011;67235;45.638;11.714;2023-06-04T13:40:31;9.70;;;6.50;;
78027;SDS011;67235;45.638;11.714;2023-06-04T13:43:00;9.43;;;6.65;;
78027;SDS011;67235;45.638;11.714;2023-06-04T13:45:27;10.00;;;6.55;;
78027;SDS011;67235;45.638;11.714;2023-06-04T13:47:53;9.30;;;6.20;;
78027;SDS011;67235;45.638;11.714;2023-06-04T13:50:19;10.10;;;7.10;;
78027;SDS011;67235;45.638;11.714;2023-06-04T13:52:45;10.27;;;6.82;;
78027;SDS011;67235;45.638;11.714;2023-06-04T13:55:14;10.02;;;6.75;;
78027;SDS011;67235;45.638;11.714;2023-06-04T13:57:40;9.73;;;6.40;;
78027;SDS011;67235;45.638;11.714;2023-06-04T14:00:06;9.85;;;6.93;;
78027;SDS011;67235;45.638;11.714;2023-06-04T14:02:32;10.88;;;6.38;;
78027;SDS011;67235;45.638;11.714;2023-06-04T14:04:58;10.50;;;6.35;;
78027;SDS011;67235;45.638;11.714;2023-06-04T14:07:24;10.40;;;6.43;;
78027;SDS011;67235;45.638;11.714;2023-06-04T14:09:50;8.95;;;6.07;;
78027;SDS011;67235;45.638;11.714;2023-06-04T14:12:20;10.85;;;6.55;;
78027;SDS011;67235;45.638;11.714;2023-06-04T14:14:47;10.33;;;6.10;;
78027;SDS011;67235;45.638;11.714;2023-06-04T14:17:12;9.90;;;6.43;;
78027;SDS011;67235;45.638;11.714;2023-06-04T14:19:39;9.20;;;6.43;;
78027;SDS011;67235;45.638;11.714;2023-06-04T14:22:05;10.32;;;6.75;;
78027;SDS011;67235;45.638;11.714;2023-06-04T14:24:31;10.13;;;6.13;;
78027;SDS011;67235;45.638;11.714;2023-06-04T14:26:57;9.13;;;6.68;;
78027;SDS011;67235;45.638;11.714;2023-06-04T14:29:23;10.20;;;6.35;;
78027;SDS011;67235;45.638;11.714;2023-06-04T14:31:49;9.18;;;6.15;;
78027;SDS011;67235;45.638;11.714;2023-06-04T14:34:15;9.03;;;6.07;;
78027;SDS011;67235;45.638;11.714;2023-06-04T14:36:41;9.82;;;6.70;;
78027;SDS011;67235;45.638;11.714;2023-06-04T14:39:07;10.68;;;6.57;;